sensor_id;sensor_type;location;lat;lon;timestamp;temperature;humidity
14236;DHT22;7202;50.718;7.072;2023-04-15T00:01:14;5.50;99.90
14236;DHT22;7202;50.718;7.072;2023-04-15T00:03:46;5.50;99.90
14236;DHT22;7202;50.718;7.072;2023-04-15T00:06:16;5.40;99.90
14236;DHT22;7202;50.718;7.072;2023-04-15T00:08:46;5.40;99.90
14236;DHT22;7202;50.718;7.072;2023-04-15T00:11:16;5.40;99.90
14236;DHT22;7202;50.718;7.072;2023-04-15T00:13:46;5.50;99.90
14236;DHT22;7202;50.718;7.072;2023-04-15T00:16:16;5.30;99.90
14236;DHT22;7202;50.718;7.072;2023-04-15T00:18:45;5.30;99.90
14236;DHT22;7202;50.718;7.072;2023-04-15T00:21:13;5.30;99.90
14236;DHT22;7202;50.718;7.072;2023-04-15T00:23:43;5.20;99.90
14236;DHT22;7202;50.718;7.072;2023-04-15T00:26:16;5.20;99.90
14236;DHT22;7202;50.718;7.072;2023-04-15T00:28:47;5.10;99.90
14236;DHT22;7202;50.718;7.072;2023-04-15T00:31:15;5.10;99.90
14236;DHT22;7202;50.718;7.072;2023-04-15T00:33:45;5.10;99.90
14236;DHT22;7202;50.718;7.072;2023-04-15T00:36:15;5.00;99.90
14236;DHT22;7202;50.718;7.072;2023-04-15T00:38:45;5.00;99.90
14236;DHT22;7202;50.718;7.072;2023-04-15T00:41:14;5.00;99.90
14236;DHT22;7202;50.718;7.072;2023-04-15T00:43:43;5.00;99.90
14236;DHT22;7202;50.718;7.072;2023-04-15T00:46:13;5.00;99.90
14236;DHT22;7202;50.718;7.072;2023-04-15T00:48:43;5.00;99.90
14236;DHT22;7202;50.718;7.072;2023-04-15T00:51:12;5.00;99.90
14236;DHT22;7202;50.718;7.072;2023-04-15T00:53:41;5.00;99.90
14236;DHT22;7202;50.718;7.072;2023-04-15T00:56:11;4.90;99.90
14236;DHT22;7202;50.718;7.072;2023-04-15T00:58:41;4.90;99.90
14236;DHT22;7202;50.718;7.072;2023-04-15T01:01:11;4.90;99.90
14236;DHT22;7202;50.718;7.072;2023-04-15T01:03:40;4.80;99.90
14236;DHT22;7202;50.718;7.072;2023-04-15T01:06:09;5.00;99.90
14236;DHT22;7202;50.718;7.072;2023-04-15T01:08:38;4.80;99.90
14236;DHT22;7202;50.718;7.072;2023-04-15T01:11:07;4.80;99.90
14236;DHT22;7202;50.718;7.072;2023-04-15T01:13:38;4.80;99.90
14236;DHT22;7202;50.718;7.072;2023-04-15T01:16:07;4.80;99.90
14236;DHT22;7202;50.718;7.072;2023-04-15T01:18:36;4.70;99.90
14236;DHT22;7202;50.718;7.072;2023-04-15T01:21:06;4.70;99.90
14236;DHT22;7202;50.718;7.072;2023-04-15T01:23:35;4.70;99.90
14236;DHT22;7202;50.718;7.072;2023-04-15T01:26:06;4.70;99.90
14236;DHT22;7202;50.718;7.072;2023-04-15T01:28:35;4.60;99.90
14236;DHT22;7202;50.718;7.072;2023-04-15T01:31:06;4.60;99.90
14236;DHT22;7202;50.718;7.072;2023-04-15T01:33:37;4.60;99.90
14236;DHT22;7202;50.718;7.072;2023-04-15T01:36:07;4.50;99.90
14236;DHT22;7202;50.718;7.072;2023-04-15T01:38:36;4.50;99.90
14236;DHT22;7202;50.718;7.072;2023-04-15T01:41:06;4.50;99.90
14236;DHT22;7202;50.718;7.072;2023-04-15T01:43:35;4.40;99.90
14236;DHT22;7202;50.718;7.072;2023-04-15T01:46:04;4.40;99.90
14236;DHT22;7202;50.718;7.072;2023-04-15T01:48:33;4.40;99.90
14236;DHT22;7202;50.718;7.072;2023-04-15T01:51:03;4.40;99.90
14236;DHT22;7202;50.718;7.072;2023-04-15T01:53:32;4.30;99.90
14236;DHT22;7202;50.718;7.072;2023-04-15T01:56:01;4.30;99.90
14236;DHT22;7202;50.718;7.072;2023-04-15T01:58:32;4.30;99.90
14236;DHT22;7202;50.718;7.072;2023-04-15T02:01:00;4.20;99.90
14236;DHT22;7202;50.718;7.072;2023-04-15T02:03:31;4.20;99.90
14236;DHT22;7202;50.718;7.072;2023-04-15T02:06:00;4.20;99.90
14236;DHT22;7202;50.718;7.072;2023-04-15T02:08:28;4.20;99.90
14236;DHT22;7202;50.718;7.072;2023-04-15T02:10:57;4.10;99.90
14236;DHT22;7202;50.718;7.072;2023-04-15T02:13:28;4.10;99.90
14236;DHT22;7202;50.718;7.072;2023-04-15T02:15:58;4.10;99.90
14236;DHT22;7202;50.718;7.072;2023-04-15T02:18:28;4.00;99.90
14236;DHT22;7202;50.718;7.072;2023-04-15T02:20:57;4.00;99.90
14236;DHT22;7202;50.718;7.072;2023-04-15T02:23:26;4.00;99.90
14236;DHT22;7202;50.718;7.072;2023-04-15T02:25:55;4.00;99.90
14236;DHT22;7202;50.718;7.072;2023-04-15T02:28:24;4.00;99.90
14236;DHT22;7202;50.718;7.072;2023-04-15T02:30:54;4.00;99.90
14236;DHT22;7202;50.718;7.072;2023-04-15T02:33:27;4.00;99.90
14236;DHT22;7202;50.718;7.072;2023-04-15T02:35:56;4.00;99.90
14236;DHT22;7202;50.718;7.072;2023-04-15T02:38:25;4.00;99.90
14236;DHT22;7202;50.718;7.072;2023-04-15T02:40:54;4.00;99.90
14236;DHT22;7202;50.718;7.072;2023-04-15T02:43:24;3.90;99.90
14236;DHT22;7202;50.718;7.072;2023-04-15T02:45:53;3.90;99.90
14236;DHT22;7202;50.718;7.072;2023-04-15T02:48:22;3.90;99.90
14236;DHT22;7202;50.718;7.072;2023-04-15T02:50:52;3.90;99.90
14236;DHT22;7202;50.718;7.072;2023-04-15T02:53:21;3.80;99.90
14236;DHT22;7202;50.718;7.072;2023-04-15T02:55:49;3.80;99.90
14236;DHT22;7202;50.718;7.072;2023-04-15T02:58:18;3.80;99.90
14236;DHT22;7202;50.718;7.072;2023-04-15T03:00:47;3.70;99.90
14236;DHT22;7202;50.718;7.072;2023-04-15T03:03:18;3.70;99.90
14236;DHT22;7202;50.718;7.072;2023-04-15T03:05:47;3.70;99.90
14236;DHT22;7202;50.718;7.072;2023-04-15T03:08:18;3.70;99.90
14236;DHT22;7202;50.718;7.072;2023-04-15T03:10:47;3.70;99.90
14236;DHT22;7202;50.718;7.072;2023-04-15T03:13:18;3.60;99.90
14236;DHT22;7202;50.718;7.072;2023-04-15T03:15:47;3.60;99.90
14236;DHT22;7202;50.718;7.072;2023-04-15T03:18:16;3.70;99.90
14236;DHT22;7202;50.718;7.072;2023-04-15T03:20:45;3.70;99.90
14236;DHT22;7202;50.718;7.072;2023-04-15T03:23:14;3.60;99.90
14236;DHT22;7202;50.718;7.072;2023-04-15T03:25:45;3.70;99.90
14236;DHT22;7202;50.718;7.072;2023-04-15T03:28:14;3.70;99.90
14236;DHT22;7202;50.718;7.072;2023-04-15T03:30:43;3.80;99.90
14236;DHT22;7202;50.718;7.072;2023-04-15T03:33:12;3.60;99.90
14236;DHT22;7202;50.718;7.072;2023-04-15T03:35:40;3.60;99.90
14236;DHT22;7202;50.718;7.072;2023-04-15T03:38:09;3.60;99.90
14236;DHT22;7202;50.718;7.072;2023-04-15T03:40:40;3.60;99.90
14236;DHT22;7202;50.718;7.072;2023-04-15T03:43:11;3.60;99.90
14236;DHT22;7202;50.718;7.072;2023-04-15T03:45:39;3.60;99.90
14236;DHT22;7202;50.718;7.072;2023-04-15T03:48:08;3.70;99.90
14236;DHT22;7202;50.718;7.072;2023-04-15T03:50:44;3.60;99.90
14236;DHT22;7202;50.718;7.072;2023-04-15T03:53:13;3.60;99.90
14236;DHT22;7202;50.718;7.072;2023-04-15T03:55:42;3.60;99.90
14236;DHT22;7202;50.718;7.072;2023-04-15T03:58:12;3.50;99.90
14236;DHT22;7202;50.718;7.072;2023-04-15T04:00:41;3.50;99.90
14236;DHT22;7202;50.718;7.072;2023-04-15T04:03:09;3.50;99.90
14236;DHT22;7202;50.718;7.072;2023-04-15T04:05:39;3.50;99.90
14236;DHT22;7202;50.718;7.072;2023-04-15T04:08:09;3.50;99.90
14236;DHT22;7202;50.718;7.072;2023-04-15T04:10:40;3.40;99.90
14236;DHT22;7202;50.718;7.072;2023-04-15T04:13:08;3.40;99.90
14236;DHT22;7202;50.718;7.072;2023-04-15T04:15:38;3.40;99.90
14236;DHT22;7202;50.718;7.072;2023-04-15T04:18:07;3.40;99.90
14236;DHT22;7202;50.718;7.072;2023-04-15T04:20:36;3.40;99.90
14236;DHT22;7202;50.718;7.072;2023-04-15T04:23:04;3.40;99.90
14236;DHT22;7202;50.718;7.072;2023-04-15T04:25:33;3.30;99.90
14236;DHT22;7202;50.718;7.072;2023-04-15T04:28:02;3.40;99.90
14236;DHT22;7202;50.718;7.072;2023-04-15T04:30:31;3.30;99.90
14236;DHT22;7202;50.718;7.072;2023-04-15T04:33:01;3.40;99.90
14236;DHT22;7202;50.718;7.072;2023-04-15T04:35:29;3.30;99.90
14236;DHT22;7202;50.718;7.072;2023-04-15T04:38:01;3.20;99.90
14236;DHT22;7202;50.718;7.072;2023-04-15T04:40:30;3.20;99.90
14236;DHT22;7202;50.718;7.072;2023-04-15T04:42:59;3.20;99.90
14236;DHT22;7202;50.718;7.072;2023-04-15T04:45:27;3.20;99.90
14236;DHT22;7202;50.718;7.072;2023-04-15T04:47:56;3.10;99.90
14236;DHT22;7202;50.718;7.072;2023-04-15T04:50:26;3.10;99.90
14236;DHT22;7202;50.718;7.072;2023-04-15T04:52:55;3.10;99.90
14236;DHT22;7202;50.718;7.072;2023-04-15T04:55:23;3.00;99.90
14236;DHT22;7202;50.718;7.072;2023-04-15T04:57:52;3.00;99.90
14236;DHT22;7202;50.718;7.072;2023-04-15T05:00:20;3.00;99.90
14236;DHT22;7202;50.718;7.072;2023-04-15T05:02:49;3.00;99.90
14236;DHT22;7202;50.718;7.072;2023-04-15T05:05:18;3.00;99.90
14236;DHT22;7202;50.718;7.072;2023-04-15T05:07:48;3.00;99.90
14236;DHT22;7202;50.718;7.072;2023-04-15T05:10:17;3.00;99.90
14236;DHT22;7202;50.718;7.072;2023-04-15T05:12:45;3.00;99.90
14236;DHT22;7202;50.718;7.072;2023-04-15T05:15:14;3.00;99.90
14236;DHT22;7202;50.718;7.072;2023-04-15T05:17:42;3.00;99.90
14236;DHT22;7202;50.718;7.072;2023-04-15T05:20:12;3.00;99.90
14236;DHT22;7202;50.718;7.072;2023-04-15T05:22:41;3.10;99.90
14236;DHT22;7202;50.718;7.072;2023-04-15T05:25:11;3.20;99.90
14236;DHT22;7202;50.718;7.072;2023-04-15T05:27:40;3.20;99.90
14236;DHT22;7202;50.718;7.072;2023-04-15T05:30:09;3.30;99.90
14236;DHT22;7202;50.718;7.072;2023-04-15T05:32:40;3.40;99.90
14236;DHT22;7202;50.718;7.072;2023-04-15T05:35:08;3.40;99.90
14236;DHT22;7202;50.718;7.072;2023-04-15T05:37:37;3.50;99.90
14236;DHT22;7202;50.718;7.072;2023-04-15T05:40:06;3.60;99.90
14236;DHT22;7202;50.718;7.072;2023-04-15T05:42:38;3.70;99.90
14236;DHT22;7202;50.718;7.072;2023-04-15T05:45:07;3.80;99.90
14236;DHT22;7202;50.718;7.072;2023-04-15T05:47:36;3.90;99.90
14236;DHT22;7202;50.718;7.072;2023-04-15T05:50:05;4.10;99.90
14236;DHT22;7202;50.718;7.072;2023-04-15T05:52:34;4.30;99.90
14236;DHT22;7202;50.718;7.072;2023-04-15T05:55:03;4.40;99.90
14236;DHT22;7202;50.718;7.072;2023-04-15T05:57:32;4.60;99.90
14236;DHT22;7202;50.718;7.072;2023-04-15T06:00:03;4.70;99.90
14236;DHT22;7202;50.718;7.072;2023-04-15T06:02:35;4.90;99.90
14236;DHT22;7202;50.718;7.072;2023-04-15T06:05:05;5.20;99.90
14236;DHT22;7202;50.718;7.072;2023-04-15T06:07:36;5.20;99.90
14236;DHT22;7202;50.718;7.072;2023-04-15T06:10:06;5.40;99.90
14236;DHT22;7202;50.718;7.072;2023-04-15T06:12:35;5.50;99.90
14236;DHT22;7202;50.718;7.072;2023-04-15T06:15:06;5.70;99.90
14236;DHT22;7202;50.718;7.072;2023-04-15T06:17:36;5.90;99.90
14236;DHT22;7202;50.718;7.072;2023-04-15T06:20:06;6.00;99.90
14236;DHT22;7202;50.718;7.072;2023-04-15T06:22:36;6.10;99.90
14236;DHT22;7202;50.718;7.072;2023-04-15T06:25:06;6.20;99.90
14236;DHT22;7202;50.718;7.072;2023-04-15T06:27:35;6.30;99.90
14236;DHT22;7202;50.718;7.072;2023-04-15T06:30:07;6.30;99.90
14236;DHT22;7202;50.718;7.072;2023-04-15T06:32:35;6.40;99.90
14236;DHT22;7202;50.718;7.072;2023-04-15T06:35:04;6.40;99.90
14236;DHT22;7202;50.718;7.072;2023-04-15T06:37:33;6.50;99.90
14236;DHT22;7202;50.718;7.072;2023-04-15T06:40:02;6.60;99.90
14236;DHT22;7202;50.718;7.072;2023-04-15T06:42:31;6.70;99.90
14236;DHT22;7202;50.718;7.072;2023-04-15T06:45:00;6.80;99.90
14236;DHT22;7202;50.718;7.072;2023-04-15T06:47:30;6.90;99.90
14236;DHT22;7202;50.718;7.072;2023-04-15T06:49:59;7.00;99.90
14236;DHT22;7202;50.718;7.072;2023-04-15T06:52:28;7.00;99.90
14236;DHT22;7202;50.718;7.072;2023-04-15T06:54:56;7.10;99.90
14236;DHT22;7202;50.718;7.072;2023-04-15T06:57:25;7.20;99.90
14236;DHT22;7202;50.718;7.072;2023-04-15T06:59:55;7.30;99.90
14236;DHT22;7202;50.718;7.072;2023-04-15T07:02:23;7.30;99.90
14236;DHT22;7202;50.718;7.072;2023-04-15T07:04:53;7.40;99.90
14236;DHT22;7202;50.718;7.072;2023-04-15T07:07:23;7.50;99.90
14236;DHT22;7202;50.718;7.072;2023-04-15T07:09:52;7.60;99.90
14236;DHT22;7202;50.718;7.072;2023-04-15T07:12:21;7.70;99.90
14236;DHT22;7202;50.718;7.072;2023-04-15T07:14:49;7.80;99.90
14236;DHT22;7202;50.718;7.072;2023-04-15T07:17:18;8.00;99.90
14236;DHT22;7202;50.718;7.072;2023-04-15T07:19:47;8.10;99.90
14236;DHT22;7202;50.718;7.072;2023-04-15T07:22:17;8.30;99.90
14236;DHT22;7202;50.718;7.072;2023-04-15T07:24:45;8.40;99.90
14236;DHT22;7202;50.718;7.072;2023-04-15T07:27:14;8.60;99.90
14236;DHT22;7202;50.718;7.072;2023-04-15T07:29:43;8.70;99.90
14236;DHT22;7202;50.718;7.072;2023-04-15T07:32:12;8.70;99.90
14236;DHT22;7202;50.718;7.072;2023-04-15T07:34:41;8.80;99.90
14236;DHT22;7202;50.718;7.072;2023-04-15T07:37:09;8.80;99.90
14236;DHT22;7202;50.718;7.072;2023-04-15T07:39:39;8.90;99.90
14236;DHT22;7202;50.718;7.072;2023-04-15T07:42:09;9.00;99.90
14236;DHT22;7202;50.718;7.072;2023-04-15T07:44:38;9.10;99.90
14236;DHT22;7202;50.718;7.072;2023-04-15T07:47:06;9.10;99.90
14236;DHT22;7202;50.718;7.072;2023-04-15T07:49:35;9.20;99.90
14236;DHT22;7202;50.718;7.072;2023-04-15T07:52:03;9.30;99.90
14236;DHT22;7202;50.718;7.072;2023-04-15T07:54:32;9.40;99.90
14236;DHT22;7202;50.718;7.072;2023-04-15T07:57:02;9.50;99.90
14236;DHT22;7202;50.718;7.072;2023-04-15T07:59:31;9.60;99.90
14236;DHT22;7202;50.718;7.072;2023-04-15T08:02:00;9.60;99.90
14236;DHT22;7202;50.718;7.072;2023-04-15T08:04:30;9.80;99.90
14236;DHT22;7202;50.718;7.072;2023-04-15T08:06:59;9.80;99.90
14236;DHT22;7202;50.718;7.072;2023-04-15T08:09:27;9.90;99.90
14236;DHT22;7202;50.718;7.072;2023-04-15T08:11:56;10.00;99.90
14236;DHT22;7202;50.718;7.072;2023-04-15T08:14:26;10.10;99.90
14236;DHT22;7202;50.718;7.072;2023-04-15T08:16:55;10.20;99.90
14236;DHT22;7202;50.718;7.072;2023-04-15T08:19:23;10.30;99.90
14236;DHT22;7202;50.718;7.072;2023-04-15T08:21:52;10.40;99.90
14236;DHT22;7202;50.718;7.072;2023-04-15T08:24:21;10.50;99.90
14236;DHT22;7202;50.718;7.072;2023-04-15T08:26:50;10.60;99.90
14236;DHT22;7202;50.718;7.072;2023-04-15T08:29:18;10.70;99.90
14236;DHT22;7202;50.718;7.072;2023-04-15T08:31:49;10.80;99.90
14236;DHT22;7202;50.718;7.072;2023-04-15T08:34:18;10.80;99.90
14236;DHT22;7202;50.718;7.072;2023-04-15T08:36:47;10.90;99.90
14236;DHT22;7202;50.718;7.072;2023-04-15T08:39:15;10.90;99.90
14236;DHT22;7202;50.718;7.072;2023-04-15T08:41:45;10.90;99.90
14236;DHT22;7202;50.718;7.072;2023-04-15T08:44:15;11.00;99.90
14236;DHT22;7202;50.718;7.072;2023-04-15T08:46:45;11.10;99.90
14236;DHT22;7202;50.718;7.072;2023-04-15T08:49:16;11.20;99.90
14236;DHT22;7202;50.718;7.072;2023-04-15T08:51:46;11.30;99.90
14236;DHT22;7202;50.718;7.072;2023-04-15T08:54:16;11.40;99.90
14236;DHT22;7202;50.718;7.072;2023-04-15T08:56:45;11.50;99.90
14236;DHT22;7202;50.718;7.072;2023-04-15T08:59:15;11.50;99.90
14236;DHT22;7202;50.718;7.072;2023-04-15T09:01:44;11.70;99.90
14236;DHT22;7202;50.718;7.072;2023-04-15T09:04:16;11.70;99.90
14236;DHT22;7202;50.718;7.072;2023-04-15T09:06:45;11.80;99.90
14236;DHT22;7202;50.718;7.072;2023-04-15T09:09:14;11.90;99.90
14236;DHT22;7202;50.718;7.072;2023-04-15T09:11:43;12.00;99.90
14236;DHT22;7202;50.718;7.072;2023-04-15T09:14:12;12.10;99.90
14236;DHT22;7202;50.718;7.072;2023-04-15T09:16:58;12.20;99.90
14236;DHT22;7202;50.718;7.072;2023-04-15T09:19:29;12.30;99.90
14236;DHT22;7202;50.718;7.072;2023-04-15T09:22:01;12.40;99.90
14236;DHT22;7202;50.718;7.072;2023-04-15T09:24:35;12.50;99.90
14236;DHT22;7202;50.718;7.072;2023-04-15T09:27:06;12.60;99.90
14236;DHT22;7202;50.718;7.072;2023-04-15T09:29:35;12.80;99.90
14236;DHT22;7202;50.718;7.072;2023-04-15T09:32:11;12.90;99.90
14236;DHT22;7202;50.718;7.072;2023-04-15T09:34:42;13.10;99.90
14236;DHT22;7202;50.718;7.072;2023-04-15T09:37:12;13.20;99.90
14236;DHT22;7202;50.718;7.072;2023-04-15T09:39:58;13.30;99.90
14236;DHT22;7202;50.718;7.072;2023-04-15T09:42:27;13.40;99.90
14236;DHT22;7202;50.718;7.072;2023-04-15T09:45:07;13.40;99.90
14236;DHT22;7202;50.718;7.072;2023-04-15T09:47:36;13.40;99.90
14236;DHT22;7202;50.718;7.072;2023-04-15T09:50:07;13.40;99.90
14236;DHT22;7202;50.718;7.072;2023-04-15T09:52:41;13.50;99.90
14236;DHT22;7202;50.718;7.072;2023-04-15T09:55:11;13.60;99.90
14236;DHT22;7202;50.718;7.072;2023-04-15T09:57:40;13.70;99.90
14236;DHT22;7202;50.718;7.072;2023-04-15T10:00:11;13.80;99.90
14236;DHT22;7202;50.718;7.072;2023-04-15T10:02:41;13.80;99.90
14236;DHT22;7202;50.718;7.072;2023-04-15T10:05:14;13.90;99.90
14236;DHT22;7202;50.718;7.072;2023-04-15T10:07:44;13.90;99.90
14236;DHT22;7202;50.718;7.072;2023-04-15T10:10:13;14.00;99.90
14236;DHT22;7202;50.718;7.072;2023-04-15T10:12:43;14.10;99.90
14236;DHT22;7202;50.718;7.072;2023-04-15T10:15:15;14.20;99.90
14236;DHT22;7202;50.718;7.072;2023-04-15T10:17:44;14.30;99.90
14236;DHT22;7202;50.718;7.072;2023-04-15T10:20:18;14.30;99.90
14236;DHT22;7202;50.718;7.072;2023-04-15T10:22:49;14.40;99.90
14236;DHT22;7202;50.718;7.072;2023-04-15T10:25:19;14.50;99.90
14236;DHT22;7202;50.718;7.072;2023-04-15T10:27:49;14.40;99.90
14236;DHT22;7202;50.718;7.072;2023-04-15T10:30:19;14.50;99.90
14236;DHT22;7202;50.718;7.072;2023-04-15T10:32:48;14.60;99.90
14236;DHT22;7202;50.718;7.072;2023-04-15T10:35:19;14.70;99.90
14236;DHT22;7202;50.718;7.072;2023-04-15T10:37:49;14.60;99.90
14236;DHT22;7202;50.718;7.072;2023-04-15T10:40:26;14.60;99.90
14236;DHT22;7202;50.718;7.072;2023-04-15T10:42:55;14.60;99.90
14236;DHT22;7202;50.718;7.072;2023-04-15T10:45:25;14.70;99.90
14236;DHT22;7202;50.718;7.072;2023-04-15T10:47:55;14.70;99.90
14236;DHT22;7202;50.718;7.072;2023-04-15T10:50:27;14.70;99.90
14236;DHT22;7202;50.718;7.072;2023-04-15T10:52:56;14.80;99.90
14236;DHT22;7202;50.718;7.072;2023-04-15T10:55:26;14.80;99.90
14236;DHT22;7202;50.718;7.072;2023-04-15T10:57:58;14.70;99.90
14236;DHT22;7202;50.718;7.072;2023-04-15T11:00:28;14.70;99.90
14236;DHT22;7202;50.718;7.072;2023-04-15T11:02:58;14.60;99.90
14236;DHT22;7202;50.718;7.072;2023-04-15T11:05:50;14.70;99.90
14236;DHT22;7202;50.718;7.072;2023-04-15T11:08:20;14.70;99.90
14236;DHT22;7202;50.718;7.072;2023-04-15T11:11:09;14.60;99.90
14236;DHT22;7202;50.718;7.072;2023-04-15T11:13:47;14.70;99.90
14236;DHT22;7202;50.718;7.072;2023-04-15T11:16:16;14.80;99.90
14236;DHT22;7202;50.718;7.072;2023-04-15T11:18:52;14.90;99.90
14236;DHT22;7202;50.718;7.072;2023-04-15T11:21:24;14.80;99.90
14236;DHT22;7202;50.718;7.072;2023-04-15T11:23:54;14.70;99.90
14236;DHT22;7202;50.718;7.072;2023-04-15T11:26:26;14.60;99.90
14236;DHT22;7202;50.718;7.072;2023-04-15T11:28:54;14.50;99.90
14236;DHT22;7202;50.718;7.072;2023-04-15T11:31:26;14.50;99.90
14236;DHT22;7202;50.718;7.072;2023-04-15T11:33:57;14.50;99.90
14236;DHT22;7202;50.718;7.072;2023-04-15T11:36:27;14.40;99.90
14236;DHT22;7202;50.718;7.072;2023-04-15T11:38:57;14.30;99.90
14236;DHT22;7202;50.718;7.072;2023-04-15T11:41:27;14.30;99.90
14236;DHT22;7202;50.718;7.072;2023-04-15T11:43:56;14.20;99.90
14236;DHT22;7202;50.718;7.072;2023-04-15T11:46:28;14.20;99.90
14236;DHT22;7202;50.718;7.072;2023-04-15T11:48:58;14.20;99.90
14236;DHT22;7202;50.718;7.072;2023-04-15T11:51:31;14.20;99.90
14236;DHT22;7202;50.718;7.072;2023-04-15T11:53:59;14.20;99.90
14236;DHT22;7202;50.718;7.072;2023-04-15T11:56:30;14.10;99.90
14236;DHT22;7202;50.718;7.072;2023-04-15T11:58:59;14.10;99.90
14236;DHT22;7202;50.718;7.072;2023-04-15T12:01:31;14.10;99.90
14236;DHT22;7202;50.718;7.072;2023-04-15T12:04:00;13.90;99.90
14236;DHT22;7202;50.718;7.072;2023-04-15T12:06:31;13.80;99.90
14236;DHT22;7202;50.718;7.072;2023-04-15T12:09:07;13.70;99.90
14236;DHT22;7202;50.718;7.072;2023-04-15T12:11:39;13.70;99.90
14236;DHT22;7202;50.718;7.072;2023-04-15T12:14:19;13.70;99.90
14236;DHT22;7202;50.718;7.072;2023-04-15T12:16:49;13.90;99.90
14236;DHT22;7202;50.718;7.072;2023-04-15T12:19:22;14.00;99.90
14236;DHT22;7202;50.718;7.072;2023-04-15T12:21:57;14.00;99.90
14236;DHT22;7202;50.718;7.072;2023-04-15T12:24:29;14.00;99.90
14236;DHT22;7202;50.718;7.072;2023-04-15T12:27:02;14.10;99.90
14236;DHT22;7202;50.718;7.072;2023-04-15T12:29:33;14.00;99.90
14236;DHT22;7202;50.718;7.072;2023-04-15T12:32:04;13.80;99.90
14236;DHT22;7202;50.718;7.072;2023-04-15T12:34:34;13.70;99.90
14236;DHT22;7202;50.718;7.072;2023-04-15T12:37:05;13.60;99.90
14236;DHT22;7202;50.718;7.072;2023-04-15T12:39:35;13.60;99.90
14236;DHT22;7202;50.718;7.072;2023-04-15T12:42:06;13.50;99.90
14236;DHT22;7202;50.718;7.072;2023-04-15T12:44:35;13.40;99.90
14236;DHT22;7202;50.718;7.072;2023-04-15T12:47:04;13.30;99.90
14236;DHT22;7202;50.718;7.072;2023-04-15T12:49:33;13.30;99.90
14236;DHT22;7202;50.718;7.072;2023-04-15T12:52:02;13.20;99.90
14236;DHT22;7202;50.718;7.072;2023-04-15T12:54:31;13.10;99.90
14236;DHT22;7202;50.718;7.072;2023-04-15T12:57:01;13.10;99.90
14236;DHT22;7202;50.718;7.072;2023-04-15T12:59:35;13.10;99.90
14236;DHT22;7202;50.718;7.072;2023-04-15T13:02:03;13.10;99.90
14236;DHT22;7202;50.718;7.072;2023-04-15T13:04:32;13.10;99.90
14236;DHT22;7202;50.718;7.072;2023-04-15T13:07:01;13.10;99.90
14236;DHT22;7202;50.718;7.072;2023-04-15T13:09:30;13.00;99.90
14236;DHT22;7202;50.718;7.072;2023-04-15T13:11:59;13.00;99.90
14236;DHT22;7202;50.718;7.072;2023-04-15T13:14:28;13.00;99.90
14236;DHT22;7202;50.718;7.072;2023-04-15T13:16:58;13.00;99.90
14236;DHT22;7202;50.718;7.072;2023-04-15T13:19:27;12.90;99.90
14236;DHT22;7202;50.718;7.072;2023-04-15T13:21:55;12.90;99.90
14236;DHT22;7202;50.718;7.072;2023-04-15T13:24:24;12.80;99.90
14236;DHT22;7202;50.718;7.072;2023-04-15T13:26:54;12.80;99.90
14236;DHT22;7202;50.718;7.072;2023-04-15T13:29:23;12.70;99.90
14236;DHT22;7202;50.718;7.072;2023-04-15T13:31:52;12.70;99.90
14236;DHT22;7202;50.718;7.072;2023-04-15T13:34:22;12.70;99.90
14236;DHT22;7202;50.718;7.072;2023-04-15T13:36:51;12.70;99.90
14236;DHT22;7202;50.718;7.072;2023-04-15T13:39:19;12.70;99.90
14236;DHT22;7202;50.718;7.072;2023-04-15T13:41:48;12.70;99.90
14236;DHT22;7202;50.718;7.072;2023-04-15T13:44:17;12.60;99.90
14236;DHT22;7202;50.718;7.072;2023-04-15T13:46:48;12.70;99.90
14236;DHT22;7202;50.718;7.072;2023-04-15T13:49:17;12.60;99.90
14236;DHT22;7202;50.718;7.072;2023-04-15T13:51:47;12.50;99.90
14236;DHT22;7202;50.718;7.072;2023-04-15T13:54:15;12.50;99.90
14236;DHT22;7202;50.718;7.072;2023-04-15T13:56:44;12.50;99.90
14236;DHT22;7202;50.718;7.072;2023-04-15T13:59:13;12.50;99.90
14236;DHT22;7202;50.718;7.072;2023-04-15T14:01:41;12.50;99.90
14236;DHT22;7202;50.718;7.072;2023-04-15T14:04:12;12.40;99.90
14236;DHT22;7202;50.718;7.072;2023-04-15T14:06:41;12.40;99.90
14236;DHT22;7202;50.718;7.072;2023-04-15T14:09:11;12.30;99.90
14236;DHT22;7202;50.718;7.072;2023-04-15T14:11:40;12.30;99.90
14236;DHT22;7202;50.718;7.072;2023-04-15T14:14:09;12.30;99.90
14236;DHT22;7202;50.718;7.072;2023-04-15T14:16:37;12.20;99.90
14236;DHT22;7202;50.718;7.072;2023-04-15T14:19:06;12.20;99.90
14236;DHT22;7202;50.718;7.072;2023-04-15T14:21:35;12.20;99.90
14236;DHT22;7202;50.718;7.072;2023-04-15T14:24:04;12.20;99.90
14236;DHT22;7202;50.718;7.072;2023-04-15T14:26:35;12.20;99.90
14236;DHT22;7202;50.718;7.072;2023-04-15T14:29:03;12.20;99.90
14236;DHT22;7202;50.718;7.072;2023-04-15T14:31:32;12.20;99.90
14236;DHT22;7202;50.718;7.072;2023-04-15T14:34:01;12.10;99.90
14236;DHT22;7202;50.718;7.072;2023-04-15T14:36:30;12.10;99.90
14236;DHT22;7202;50.718;7.072;2023-04-15T14:38:59;12.10;99.90
14236;DHT22;7202;50.718;7.072;2023-04-15T14:41:28;12.10;99.90
14236;DHT22;7202;50.718;7.072;2023-04-15T14:43:58;12.10;99.90
14236;DHT22;7202;50.718;7.072;2023-04-15T14:46:27;12.00;99.90
14236;DHT22;7202;50.718;7.072;2023-04-15T14:48:56;12.00;99.90
14236;DHT22;7202;50.718;7.072;2023-04-15T14:51:24;12.00;99.90
14236;DHT22;7202;50.718;7.072;2023-04-15T14:53:53;12.00;99.90
14236;DHT22;7202;50.718;7.072;2023-04-15T14:56:22;12.00;99.90
14236;DHT22;7202;50.718;7.072;2023-04-15T14:58:50;12.00;99.90
14236;DHT22;7202;50.718;7.072;2023-04-15T15:01:21;12.00;99.90
14236;DHT22;7202;50.718;7.072;2023-04-15T15:03:50;11.90;99.90
14236;DHT22;7202;50.718;7.072;2023-04-15T15:06:19;11.90;99.90
14236;DHT22;7202;50.718;7.072;2023-04-15T15:08:48;11.90;99.90
14236;DHT22;7202;50.718;7.072;2023-04-15T15:11:17;11.80;99.90
14236;DHT22;7202;50.718;7.072;2023-04-15T15:13:46;11.90;99.90
14236;DHT22;7202;50.718;7.072;2023-04-15T15:16:14;11.80;99.90
14236;DHT22;7202;50.718;7.072;2023-04-15T15:18:44;11.80;99.90
14236;DHT22;7202;50.718;7.072;2023-04-15T15:21:13;11.80;99.90
14236;DHT22;7202;50.718;7.072;2023-04-15T15:23:42;11.80;99.90
14236;DHT22;7202;50.718;7.072;2023-04-15T15:26:10;11.70;99.90
14236;DHT22;7202;50.718;7.072;2023-04-15T15:28:39;11.60;99.90
14236;DHT22;7202;50.718;7.072;2023-04-15T15:31:08;11.60;99.90
14236;DHT22;7202;50.718;7.072;2023-04-15T15:33:37;11.60;99.90
14236;DHT22;7202;50.718;7.072;2023-04-15T15:36:08;11.50;99.90
14236;DHT22;7202;50.718;7.072;2023-04-15T15:38:39;11.40;99.90
14236;DHT22;7202;50.718;7.072;2023-04-15T15:41:07;11.40;99.90
14236;DHT22;7202;50.718;7.072;2023-04-15T15:43:36;11.40;99.90
14236;DHT22;7202;50.718;7.072;2023-04-15T15:46:05;11.40;99.90
14236;DHT22;7202;50.718;7.072;2023-04-15T15:48:34;11.40;99.90
14236;DHT22;7202;50.718;7.072;2023-04-15T15:51:02;11.40;99.90
14236;DHT22;7202;50.718;7.072;2023-04-15T15:53:33;11.40;99.90
14236;DHT22;7202;50.718;7.072;2023-04-15T15:56:01;11.40;99.90
14236;DHT22;7202;50.718;7.072;2023-04-15T15:58:31;11.40;99.90
14236;DHT22;7202;50.718;7.072;2023-04-15T16:00:59;11.40;99.90
14236;DHT22;7202;50.718;7.072;2023-04-15T16:03:28;11.40;99.90
14236;DHT22;7202;50.718;7.072;2023-04-15T16:05:58;11.40;99.90
14236;DHT22;7202;50.718;7.072;2023-04-15T16:08:27;11.30;99.90
14236;DHT22;7202;50.718;7.072;2023-04-15T16:10:57;11.20;99.90